RYR7986 EBCI-LGIR
Flight info
| Callsign | RYR7986 |
|---|---|
| Flight time | N/A |
| Altitude | 37000 |
| Route | SOPOK Y863 OGLOR DCT EMGOD L607 ULNOK DCT VIBOM DCT NOMBO DCT RIDAR DCT RADIZ DCT GORPA DCT PETAK DCT PINDO DCT PIKOS UL607 GIVIS T514 XAVIS |
| Aircraft | B738/M-SDE2E3FGHIRWXY/LB1 |
Departure
| Time | N/A |
|---|---|
| Airport | Brussels South Charleroi Airport (EBCI) |
Arrival
| Time | 2026-05-07 14:47 |
|---|---|
| Airport | Heraklion International Nikos Kazantzakis Airport (LGIR) |
| Time | Latitude | Longitude | Altitude | Speed | Heading |
|---|---|---|---|---|---|
| 2026-05-07 14:31 | 36.28206 | 25.10497 | 18065 ft | 368 kts | 167° |
| 2026-05-07 14:31 | 36.25759 | 25.11349 | 17691 ft | 364 kts | 167° |
| 2026-05-07 14:32 | 36.23335 | 25.12191 | 17317 ft | 360 kts | 167° |
| 2026-05-07 14:32 | 36.20919 | 25.13030 | 16942 ft | 357 kts | 167° |
| 2026-05-07 14:32 | 36.18535 | 25.13856 | 16571 ft | 354 kts | 167° |
| 2026-05-07 14:32 | 36.16175 | 25.14674 | 16203 ft | 351 kts | 167° |
| 2026-05-07 14:33 | 36.13835 | 25.15484 | 15839 ft | 348 kts | 166° |
| 2026-05-07 14:33 | 36.11506 | 25.16290 | 15474 ft | 346 kts | 166° |
| 2026-05-07 14:33 | 36.09169 | 25.17097 | 15109 ft | 343 kts | 166° |
| 2026-05-07 14:33 | 36.06882 | 25.17887 | 14752 ft | 340 kts | 166° |
| 2026-05-07 14:34 | 36.04613 | 25.18671 | 14395 ft | 338 kts | 166° |
| 2026-05-07 14:34 | 36.02357 | 25.19449 | 14039 ft | 336 kts | 166° |
| 2026-05-07 14:34 | 36.00137 | 25.20214 | 13687 ft | 334 kts | 166° |
| 2026-05-07 14:34 | 35.97874 | 25.20993 | 13326 ft | 332 kts | 166° |
| 2026-05-07 14:35 | 35.95655 | 25.21757 | 12971 ft | 330 kts | 166° |
| 2026-05-07 14:35 | 35.93449 | 25.22517 | 12617 ft | 328 kts | 165° |
| 2026-05-07 14:35 | 35.91230 | 25.23280 | 12259 ft | 327 kts | 165° |
| 2026-05-07 14:35 | 35.89075 | 25.24020 | 11909 ft | 325 kts | 165° |
| 2026-05-07 14:36 | 35.86870 | 25.24778 | 11552 ft | 323 kts | 165° |
| 2026-05-07 14:36 | 35.84705 | 25.25521 | 11202 ft | 322 kts | 165° |
| 2026-05-07 14:36 | 35.82554 | 25.26259 | 10852 ft | 320 kts | 165° |
| 2026-05-07 14:36 | 35.80454 | 25.26979 | 10508 ft | 318 kts | 165° |
| 2026-05-07 14:37 | 35.78298 | 25.27718 | 10227 ft | 313 kts | 165° |
| 2026-05-07 14:37 | 35.74259 | 25.29109 | 10112 ft | 290 kts | 165° |
| 2026-05-07 14:37 | 35.72314 | 25.29777 | 9684 ft | 293 kts | 165° |
| 2026-05-07 14:38 | 35.70329 | 25.30458 | 9209 ft | 297 kts | 165° |
| 2026-05-07 14:38 | 35.68572 | 25.31058 | 8908 ft | 296 kts | 165° |
| 2026-05-07 14:38 | 35.66617 | 25.31726 | 8575 ft | 295 kts | 165° |
| 2026-05-07 14:38 | 35.64623 | 25.32406 | 8234 ft | 293 kts | 165° |
| 2026-05-07 14:39 | 35.62636 | 25.33082 | 7889 ft | 292 kts | 165° |
| 2026-05-07 14:39 | 35.60727 | 25.33732 | 7558 ft | 290 kts | 165° |
| 2026-05-07 14:39 | 35.58774 | 25.34396 | 7218 ft | 289 kts | 165° |
| 2026-05-07 14:39 | 35.56838 | 25.35055 | 6877 ft | 287 kts | 165° |
| 2026-05-07 14:40 | 35.54898 | 25.35714 | 6530 ft | 286 kts | 165° |
| 2026-05-07 14:40 | 35.52988 | 25.36363 | 6184 ft | 284 kts | 165° |
| 2026-05-07 14:40 | 35.51087 | 25.37008 | 5825 ft | 283 kts | 165° |
| 2026-05-07 14:40 | 35.49177 | 25.37656 | 5359 ft | 286 kts | 165° |
| 2026-05-07 14:41 | 35.47257 | 25.38307 | 5001 ft | 285 kts | 165° |
| 2026-05-07 14:41 | 35.45354 | 25.38976 | 4647 ft | 283 kts | 161° |
| 2026-05-07 14:41 | 35.43556 | 25.39938 | 4298 ft | 281 kts | 152° |
| 2026-05-07 14:41 | 35.41870 | 25.41128 | 4025 ft | 276 kts | 149° |
| 2026-05-07 14:42 | 35.40249 | 25.42293 | 3949 ft | 264 kts | 150° |
| 2026-05-07 14:42 | 35.38686 | 25.43375 | 3878 ft | 252 kts | 152° |
| 2026-05-07 14:42 | 35.37036 | 25.43914 | 3596 ft | 241 kts | 183° |
| 2026-05-07 14:42 | 35.35540 | 25.43191 | 3338 ft | 232 kts | 220° |
| 2026-05-07 14:43 | 35.34667 | 25.41578 | 3107 ft | 229 kts | 245° |
| 2026-05-07 14:43 | 35.34079 | 25.39827 | 2996 ft | 221 kts | 246° |
| 2026-05-07 14:43 | 35.33497 | 25.38094 | 3011 ft | 211 kts | 246° |
| 2026-05-07 14:43 | 35.32977 | 25.36484 | 2958 ft | 203 kts | 251° |
| 2026-05-07 14:44 | 35.32773 | 25.34825 | 2785 ft | 190 kts | 266° |
| 2026-05-07 14:44 | 35.32817 | 25.33216 | 2523 ft | 180 kts | 272° |
| 2026-05-07 14:44 | 35.32939 | 25.31713 | 2263 ft | 175 kts | 275° |
| 2026-05-07 14:44 | 35.33097 | 25.30243 | 2032 ft | 172 kts | 277° |
| 2026-05-07 14:45 | 35.33248 | 25.28804 | 1971 ft | 168 kts | 275° |
| 2026-05-07 14:45 | 35.33345 | 25.27472 | 1983 ft | 151 kts | 274° |
| 2026-05-07 14:45 | 35.33423 | 25.26220 | 2000 ft | 145 kts | 274° |
| 2026-05-07 14:45 | 35.33503 | 25.24991 | 1742 ft | 146 kts | 274° |
| 2026-05-07 14:46 | 35.33589 | 25.23722 | 1343 ft | 147 kts | 274° |
| 2026-05-07 14:46 | 35.33672 | 25.22497 | 909 ft | 145 kts | 274° |
| 2026-05-07 14:46 | 35.33755 | 25.21265 | 536 ft | 140 kts | 274° |
| 2026-05-07 14:46 | 35.33835 | 25.20092 | 342 ft | 136 kts | 274° |
| 2026-05-07 14:47 | 35.33905 | 25.18948 | 149 ft | 134 kts | 276° |
| 2026-05-07 14:47 | 35.33981 | 25.17955 | 123 ft | 89 kts | 276° |
| 2026-05-07 14:47 | 35.34017 | 25.17445 | 123 ft | 34 kts | 275° |
| 2026-05-07 14:47 | 35.34024 | 25.17233 | 123 ft | 20 kts | 271° |
| 2026-05-07 14:48 | 35.33974 | 25.17094 | 123 ft | 18 kts | 249° |
| 2026-05-07 14:48 | 35.33950 | 25.17041 | 123 ft | 4 kts | 200° |
| 2026-05-07 14:48 | 35.33934 | 25.17109 | 123 ft | 17 kts | 79° |
| 2026-05-07 14:48 | 35.33928 | 25.17264 | 123 ft | 14 kts | 95° |
| 2026-05-07 14:49 | 35.33922 | 25.17342 | 123 ft | 8 kts | 95° |
| 2026-05-07 14:49 | 35.33917 | 25.17405 | 123 ft | 7 kts | 95° |
| 2026-05-07 14:49 | 35.33908 | 25.17467 | 123 ft | 7 kts | 133° |
| 2026-05-07 14:49 | 35.33878 | 25.17421 | 123 ft | 12 kts | 259° |
| 2026-05-07 14:50 | 35.33866 | 25.17318 | 123 ft | 12 kts | 272° |
| 2026-05-07 14:50 | 35.33875 | 25.17220 | 123 ft | 11 kts | 268° |
| 2026-05-07 14:50 | 35.33875 | 25.17172 | 123 ft | 4 kts | 292° |
| 2026-05-07 14:50 | 35.33884 | 25.17157 | 123 ft | 2 kts | 315° |
| 2026-05-07 14:51 | 35.33889 | 25.17152 | 123 ft | 0 kts | 315° |